Time;durP1;ratioP1;P1;durP2;ratioP2;P2;SDS_P1;SDS_P2;PMS_P1;PMS_P2;Temp;Humidity;BMP_temperature;BMP_pressure;BME280_temperature;BME280_humidity;BME280_pressure;Samples;Min_cycle;Max_cycle;Signal;HPM_P1;HPM_P2
2023/08/09 00:01:11;;;;;;;2.40;2.00;;;;;;;14.84;67.63;99867.58;130993;1251;108316;-79
2023/08/09 00:04:17;;;;;;;3.20;1.90;;;;;;;14.85;67.63;99873.09;131112;1251;107770;-78
2023/08/09 00:07:22;;;;;;;3.50;2.00;;;;;;;14.85;67.65;99868.13;131088;1251;106491;-79
2023/08/09 00:10:28;;;;;;;2.40;2.20;;;;;;;14.86;67.73;99873.52;130995;1253;106421;-78
2023/08/09 00:13:34;;;;;;;2.40;2.10;;;;;;;14.87;67.96;99872.69;130955;1251;107419;-80
2023/08/09 00:16:39;;;;;;;2.70;2.20;;;;;;;14.86;68.10;99874.96;131101;1253;107532;-79
2023/08/09 00:19:46;;;;;;;4.10;2.60;;;;;;;14.89;68.11;99872.98;131039;1253;108456;-79
2023/08/09 00:22:52;;;;;;;2.30;2.00;;;;;;;14.87;68.11;99866.70;131143;1251;106440;-79
2023/08/09 00:25:58;;;;;;;2.00;1.70;;;;;;;14.87;68.29;99865.24;131106;1251;107505;-79
2023/08/09 00:29:04;;;;;;;2.80;2.10;;;;;;;14.91;68.51;99863.80;131024;1253;106856;-79
2023/08/09 00:32:10;;;;;;;2.00;1.70;;;;;;;14.98;68.34;99866.59;131053;1263;107625;-79
2023/08/09 00:35:15;;;;;;;3.20;2.00;;;;;;;15.02;68.51;99867.26;131010;1253;106665;-79
2023/08/09 00:38:21;;;;;;;2.30;1.70;;;;;;;15.05;68.62;99866.62;131059;1251;106499;-78
2023/08/09 00:41:26;;;;;;;2.30;2.00;;;;;;;15.05;68.54;99867.96;131030;1253;107737;-78
2023/08/09 00:44:32;;;;;;;3.30;2.00;;;;;;;15.08;68.72;99868.56;131051;1254;106809;-78
2023/08/09 00:47:38;;;;;;;3.20;2.10;;;;;;;15.09;68.68;99873.04;131072;1256;106403;-78
2023/08/09 00:50:43;;;;;;;3.90;2.10;;;;;;;15.09;68.81;99877.75;130928;1253;183887;-78
2023/08/09 00:53:49;;;;;;;3.90;1.80;;;;;;;15.07;69.13;99886.23;131066;1253;107129;-79
2023/08/09 00:56:55;;;;;;;3.70;1.90;;;;;;;15.06;69.13;99886.98;130980;1254;108675;-78
2023/08/09 01:00:04;;;;;;;2.00;1.80;;;;;;;15.09;69.19;99885.54;131075;1253;107300;-78
2023/08/09 01:03:10;;;;;;;3.40;1.90;;;;;;;15.11;69.22;99887.98;130990;1257;107066;-78
2023/08/09 01:06:21;;;;;;;3.80;1.90;;;;;;;15.14;69.42;99884.07;131005;1253;106338;-79
2023/08/09 01:09:34;;;;;;;3.00;2.10;;;;;;;15.15;69.41;99884.47;131060;1253;106502;-78
2023/08/09 01:12:43;;;;;;;2.70;2.10;;;;;;;15.16;69.73;99883.45;131094;1253;108357;-79
2023/08/09 01:15:50;;;;;;;2.20;1.90;;;;;;;15.13;69.44;99880.39;131034;1256;107997;-79
2023/08/09 01:18:58;;;;;;;2.30;1.90;;;;;;;15.11;69.39;99874.23;130947;1250;108689;-78
2023/08/09 01:22:08;;;;;;;2.90;2.10;;;;;;;15.07;69.79;99875.98;131020;1251;106759;-78
2023/08/09 01:25:14;;;;;;;3.90;1.80;;;;;;;15.02;69.62;99878.42;130947;1251;107157;-78
2023/08/09 01:28:20;;;;;;;2.80;1.90;;;;;;;14.98;69.94;99878.88;131116;1253;107441;-78
2023/08/09 01:31:27;;;;;;;2.70;2.10;;;;;;;14.94;69.87;99880.31;131087;1251;106843;-79
2023/08/09 01:34:33;;;;;;;1.90;1.70;;;;;;;14.92;69.95;99883.56;131063;1254;107661;-80
2023/08/09 01:37:44;;;;;;;2.80;2.10;;;;;;;14.90;69.87;99881.48;131095;1254;106731;-79
2023/08/09 01:40:51;;;;;;;2.50;1.90;;;;;;;14.86;70.06;99882.55;131129;1263;107538;-79
2023/08/09 01:43:57;;;;;;;2.30;1.90;;;;;;;14.81;70.21;99885.52;131060;1251;108153;-78
2023/08/09 01:47:04;;;;;;;2.40;2.00;;;;;;;14.75;70.19;99883.47;131062;1253;106728;-78
2023/08/09 01:50:20;;;;;;;2.50;2.20;;;;;;;14.71;70.34;99888.09;131054;1253;107176;-78
2023/08/09 01:53:25;;;;;;;2.10;1.90;;;;;;;14.65;70.82;99891.95;131207;1251;107079;-78
2023/08/09 01:56:31;;;;;;;2.80;2.00;;;;;;;14.58;70.62;99888.87;130997;1266;107316;-78
2023/08/09 01:59:36;;;;;;;2.20;1.70;;;;;;;14.56;70.88;99888.02;131027;1257;107698;-79
2023/08/09 02:02:43;;;;;;;2.90;2.00;;;;;;;14.60;71.10;99895.10;131055;1256;107603;-79
2023/08/09 02:05:48;;;;;;;2.70;2.20;;;;;;;14.63;71.01;99896.27;131002;1253;108732;-79
2023/08/09 02:08:54;;;;;;;3.00;2.00;;;;;;;14.66;70.99;99903.02;131125;1254;107639;-78
2023/08/09 02:11:59;;;;;;;3.20;1.80;;;;;;;14.66;70.93;99897.69;131053;1253;107709;-78
2023/08/09 02:15:06;;;;;;;2.40;1.90;;;;;;;14.66;71.17;99888.86;131021;1253;108578;-78
2023/08/09 02:18:12;;;;;;;3.60;2.10;;;;;;;14.64;71.21;99888.26;131053;1251;107703;-78
2023/08/09 02:21:18;;;;;;;4.40;2.00;;;;;;;14.60;71.47;99887.42;131055;1257;106845;-78
2023/08/09 02:24:23;;;;;;;3.00;1.80;;;;;;;14.53;71.57;99884.02;131140;1253;106561;-78
2023/08/09 02:27:29;;;;;;;3.10;1.80;;;;;;;14.52;71.58;99887.48;131206;1255;106878;-78
2023/08/09 02:30:35;;;;;;;2.10;1.90;;;;;;;14.52;71.73;99888.20;131067;1253;107909;-78
2023/08/09 02:33:40;;;;;;;2.20;2.00;;;;;;;14.51;71.71;99893.40;131007;1256;107974;-79
2023/08/09 02:36:46;;;;;;;2.70;1.80;;;;;;;14.46;71.64;99894.17;131100;1253;107569;-78
2023/08/09 02:39:52;;;;;;;3.00;1.90;;;;;;;14.39;71.86;99892.51;131125;1253;107668;-81
2023/08/09 02:42:58;;;;;;;3.60;2.20;;;;;;;14.29;71.76;99894.44;131229;1251;106846;-78
2023/08/09 02:46:04;;;;;;;3.10;2.00;;;;;;;14.17;71.83;99898.90;131014;1256;106594;-79
2023/08/09 02:49:10;;;;;;;3.80;2.20;;;;;;;14.10;71.97;99914.95;131119;1253;107432;-79
2023/08/09 02:52:15;;;;;;;4.10;2.20;;;;;;;14.04;72.29;99919.64;131126;1256;108461;-79
2023/08/09 02:55:21;;;;;;;2.70;2.20;;;;;;;13.98;72.32;99915.31;131053;1256;106997;-78
2023/08/09 02:58:27;;;;;;;2.70;2.10;;;;;;;13.95;72.50;99913.40;131071;1253;108626;-78
2023/08/09 03:01:33;;;;;;;2.50;2.00;;;;;;;13.92;72.50;99913.02;131086;1256;108631;-79
2023/08/09 03:04:39;;;;;;;2.70;2.10;;;;;;;13.91;72.49;99908.31;131124;1253;106744;-80
2023/08/09 03:07:45;;;;;;;2.70;2.20;;;;;;;13.88;72.46;99910.50;131105;1256;107063;-80
2023/08/09 03:10:50;;;;;;;4.50;2.50;;;;;;;13.83;72.66;99912.38;131284;1251;107672;-78
2023/08/09 03:13:56;;;;;;;2.80;2.20;;;;;;;13.75;72.65;99910.34;130990;1250;107929;-79
2023/08/09 03:17:02;;;;;;;3.70;2.50;;;;;;;13.68;72.93;99914.67;131157;1257;108397;-79
2023/08/09 03:20:13;;;;;;;2.90;2.10;;;;;;;13.61;72.91;99916.55;131045;1249;106380;-80
2023/08/09 03:23:18;;;;;;;2.70;1.80;;;;;;;13.56;72.87;99928.25;131141;1251;107885;-78
2023/08/09 03:26:26;;;;;;;3.30;2.20;;;;;;;13.53;72.98;99936.05;131102;1253;107713;-79
2023/08/09 03:29:32;;;;;;;2.70;2.00;;;;;;;13.56;73.28;99930.55;131065;1256;106756;-79
2023/08/09 03:32:38;;;;;;;3.30;2.00;;;;;;;13.57;73.41;99928.48;131065;1254;107388;-79
2023/08/09 03:35:44;;;;;;;4.00;2.20;;;;;;;13.58;73.40;99932.33;131043;1251;108615;-79
2023/08/09 03:38:49;;;;;;;2.60;2.10;;;;;;;13.55;73.44;99936.16;131211;1254;107659;-79
2023/08/09 03:41:56;;;;;;;3.00;2.20;;;;;;;13.55;73.67;99945.77;131243;1253;108056;-79
2023/08/09 03:45:02;;;;;;;2.90;2.10;;;;;;;13.56;73.81;99951.98;131115;1251;108676;-79
2023/08/09 03:48:08;;;;;;;2.20;2.00;;;;;;;13.60;73.95;99950.47;131165;1263;107707;-79
2023/08/09 03:51:14;;;;;;;3.10;2.30;;;;;;;13.66;73.99;99954.88;131064;1251;106740;-79
2023/08/09 03:54:21;;;;;;;4.00;2.20;;;;;;;13.76;74.16;99957.90;131124;1251;107559;-80
2023/08/09 03:57:27;;;;;;;3.30;2.40;;;;;;;13.86;74.17;99944.66;131061;1257;106803;-80
2023/08/09 04:00:33;;;;;;;2.70;2.40;;;;;;;13.91;74.24;99938.14;131091;1256;107687;-80
2023/08/09 04:03:39;;;;;;;4.10;2.40;;;;;;;13.95;74.26;99937.05;131031;1256;108706;-79
2023/08/09 04:06:45;;;;;;;3.60;2.40;;;;;;;14.06;74.21;99929.39;131087;1256;106595;-79
2023/08/09 04:09:52;;;;;;;3.70;2.50;;;;;;;14.17;74.12;99932.27;131119;1264;108049;-79
2023/08/09 04:12:58;;;;;;;2.50;2.10;;;;;;;14.27;74.22;99937.31;131078;1253;107822;-79
2023/08/09 04:16:03;;;;;;;3.70;2.00;;;;;;;14.34;74.14;99946.45;131134;1253;106864;-79
2023/08/09 04:19:09;;;;;;;2.80;2.30;;;;;;;14.48;74.32;99951.96;131138;1256;106418;-79
2023/08/09 04:22:18;;;;;;;3.90;2.30;;;;;;;14.66;74.20;99957.35;131049;1251;107691;-81
2023/08/09 04:25:23;;;;;;;3.80;2.30;;;;;;;14.85;74.29;99956.14;130953;1263;107746;-79
2023/08/09 04:28:29;;;;;;;2.40;2.10;;;;;;;14.93;74.06;99953.80;131018;1254;107741;-79
2023/08/09 04:31:34;;;;;;;4.10;2.40;;;;;;;15.02;73.91;99953.31;131003;1254;108745;-81
2023/08/09 04:34:40;;;;;;;3.00;2.30;;;;;;;15.01;74.02;99953.03;131443;1253;107979;-79
2023/08/09 04:37:45;;;;;;;2.50;2.30;;;;;;;15.02;73.97;99954.35;131192;1251;106714;-79
2023/08/09 04:40:51;;;;;;;3.00;2.00;;;;;;;15.15;74.22;99951.08;130993;1264;107673;-79
2023/08/09 04:43:57;;;;;;;2.20;2.00;;;;;;;15.38;74.33;99950.80;131214;1253;108590;-80
2023/08/09 04:47:03;;;;;;;3.30;2.10;;;;;;;15.62;74.30;99957.04;131060;1253;107745;-79
2023/08/09 04:50:10;;;;;;;2.30;2.00;;;;;;;15.85;73.92;99958.16;131086;1254;107915;-79
2023/08/09 04:53:16;;;;;;;2.70;2.30;;;;;;;16.07;73.75;99954.81;131207;1253;107939;-79
2023/08/09 04:56:22;;;;;;;3.90;2.50;;;;;;;16.25;73.70;99951.81;131258;1253;105787;-79
2023/08/09 04:59:28;;;;;;;2.30;2.00;;;;;;;16.42;73.52;99953.45;131070;1254;106765;-79
2023/08/09 05:02:36;;;;;;;2.90;2.30;;;;;;;16.58;73.50;99952.09;131089;1254;107709;-78
2023/08/09 05:05:41;;;;;;;3.30;2.40;;;;;;;16.73;73.35;99947.22;131206;1253;106808;-79
2023/08/09 05:08:47;;;;;;;4.90;2.60;;;;;;;16.83;73.07;99952.23;131224;1253;108398;-79
2023/08/09 05:11:53;;;;;;;2.70;2.10;;;;;;;16.90;73.27;99948.60;131073;1256;107688;-80
2023/08/09 05:14:59;;;;;;;3.30;2.00;;;;;;;17.04;73.19;99949.35;131438;1253;108363;-80
2023/08/09 05:18:06;;;;;;;2.60;2.20;;;;;;;17.20;72.98;99946.58;131237;1254;109050;-78
2023/08/09 05:21:12;;;;;;;3.00;2.00;;;;;;;17.35;72.66;99942.95;131120;1253;107035;-80
2023/08/09 05:24:17;;;;;;;3.10;2.40;;;;;;;17.47;72.43;99938.94;131183;1253;106762;-80
2023/08/09 05:27:23;;;;;;;2.60;2.10;;;;;;;17.58;72.24;99942.14;131156;1253;107197;-80
2023/08/09 05:30:29;;;;;;;2.10;1.80;;;;;;;17.68;72.08;99944.23;131138;1255;107667;-80
2023/08/09 05:33:34;;;;;;;2.20;2.00;;;;;;;17.78;71.98;99952.03;131205;1253;108363;-78
2023/08/09 05:36:40;;;;;;;2.80;2.20;;;;;;;17.86;71.85;99953.89;131087;1253;107196;-79
2023/08/09 05:39:45;;;;;;;4.90;2.10;;;;;;;17.93;71.71;99951.27;131171;1263;107977;-78
2023/08/09 05:42:51;;;;;;;2.90;2.40;;;;;;;17.99;71.54;99949.02;131164;1253;105867;-78
2023/08/09 05:45:57;;;;;;;3.20;2.40;;;;;;;18.03;71.52;99952.98;131087;1251;106612;-78
2023/08/09 05:49:03;;;;;;;2.80;2.30;;;;;;;18.08;71.28;99945.90;131057;1254;107761;-78
2023/08/09 05:52:09;;;;;;;3.50;3.00;;;;;;;18.11;71.15;99940.54;131010;1254;106375;-78
2023/08/09 05:55:14;;;;;;;4.50;2.50;;;;;;;18.14;71.11;99940.74;131027;1263;108479;-76
2023/08/09 05:58:20;;;;;;;4.20;2.30;;;;;;;18.14;71.00;99945.76;131012;1257;107681;-79
2023/08/09 06:01:28;;;;;;;3.50;2.00;;;;;;;18.15;70.75;99948.63;131035;1257;106597;-77
2023/08/09 06:04:34;;;;;;;4.80;2.40;;;;;;;18.18;70.94;99949.34;131084;1251;107764;-78
2023/08/09 06:07:40;;;;;;;3.10;2.10;;;;;;;18.27;70.77;99948.52;131087;1251;108564;-79
2023/08/09 06:10:45;;;;;;;2.50;2.00;;;;;;;18.33;70.80;99945.36;131153;1256;107783;-78
2023/08/09 06:13:51;;;;;;;2.50;2.10;;;;;;;18.40;70.58;99947.74;131051;1254;107287;-78
2023/08/09 06:16:58;;;;;;;3.60;2.20;;;;;;;18.42;70.09;99948.90;131190;1254;106471;-78
2023/08/09 06:20:05;;;;;;;3.80;2.30;;;;;;;18.41;70.20;99946.78;131325;1253;108193;-79
2023/08/09 06:23:11;;;;;;;3.80;2.70;;;;;;;18.42;70.08;99948.73;131299;1253;107689;-78
2023/08/09 06:26:17;;;;;;;3.40;2.00;;;;;;;18.41;69.98;99949.08;131017;1257;106388;-79
2023/08/09 06:29:23;;;;;;;2.70;1.90;;;;;;;18.41;69.92;99945.20;130981;1254;107893;-79
2023/08/09 06:32:28;;;;;;;3.40;2.40;;;;;;;18.42;69.56;99946.92;131206;1256;106653;-78
2023/08/09 06:35:34;;;;;;;2.70;2.40;;;;;;;18.43;69.58;99943.58;131178;1251;107680;-79
2023/08/09 06:38:39;;;;;;;3.60;2.20;;;;;;;18.39;69.16;99944.67;131205;1251;108669;-79
2023/08/09 06:41:45;;;;;;;2.60;2.00;;;;;;;18.33;69.12;99944.23;131153;1254;108386;-79
2023/08/09 06:44:53;;;;;;;2.80;2.10;;;;;;;18.33;69.15;99942.75;131106;1263;107072;-78
2023/08/09 06:47:58;;;;;;;2.90;2.20;;;;;;;18.35;69.05;99947.02;131199;1256;107801;-79
2023/08/09 06:51:04;;;;;;;2.90;2.10;;;;;;;18.38;69.03;99939.85;131270;1250;108498;-79
2023/08/09 06:54:10;;;;;;;2.80;2.00;;;;;;;18.45;69.16;99937.17;131347;1253;107117;-79
2023/08/09 06:57:15;;;;;;;3.30;2.00;;;;;;;18.51;68.94;99930.59;131193;1256;107747;-79
2023/08/09 07:00:22;;;;;;;3.10;2.10;;;;;;;18.54;68.43;99933.77;131083;1264;107663;-80
2023/08/09 07:03:28;;;;;;;3.00;1.90;;;;;;;18.59;68.63;99929.98;131247;1252;107795;-80
2023/08/09 07:06:34;;;;;;;3.90;2.10;;;;;;;18.65;68.23;99928.13;131297;1253;108633;-80
2023/08/09 07:09:41;;;;;;;3.40;2.00;;;;;;;18.70;68.24;99936.21;131356;1255;108672;-80
2023/08/09 07:12:47;;;;;;;3.60;2.00;;;;;;;18.75;68.05;99940.92;131209;1253;107497;-79
2023/08/09 07:15:52;;;;;;;2.80;2.10;;;;;;;18.78;67.85;99946.75;131219;1254;108043;-79
2023/08/09 07:18:58;;;;;;;3.20;2.10;;;;;;;18.81;67.62;99945.55;131142;1257;108034;-79
2023/08/09 07:22:04;;;;;;;2.00;1.60;;;;;;;18.88;67.54;99948.18;131192;1257;109026;-80
2023/08/09 07:25:10;;;;;;;3.90;1.90;;;;;;;18.96;67.36;99951.77;131078;1252;106662;-78
2023/08/09 07:28:16;;;;;;;2.50;1.70;;;;;;;19.04;67.58;99953.73;131043;1256;108565;-78
2023/08/09 07:31:23;;;;;;;3.90;2.10;;;;;;;19.11;67.44;99952.48;131014;1253;107593;-77
2023/08/09 07:34:29;;;;;;;2.20;1.70;;;;;;;19.19;67.09;99955.14;131147;1251;106602;-78
2023/08/09 07:37:37;;;;;;;3.40;1.60;;;;;;;19.24;66.54;99957.11;131083;1256;107507;-79
2023/08/09 07:40:43;;;;;;;4.00;1.80;;;;;;;19.32;66.44;99961.05;131127;1251;107640;-78
2023/08/09 07:43:50;;;;;;;3.10;1.60;;;;;;;19.39;65.86;99960.30;131041;1253;107637;-79
2023/08/09 07:46:55;;;;;;;2.80;1.60;;;;;;;19.44;65.31;99967.52;131088;1251;109361;-78
2023/08/09 07:50:01;;;;;;;2.00;1.60;;;;;;;19.50;64.96;99967.22;131067;1257;107442;-78
2023/08/09 07:53:07;;;;;;;2.00;1.50;;;;;;;19.56;64.84;99967.21;131129;1256;108414;-78
2023/08/09 07:56:13;;;;;;;3.50;1.50;;;;;;;19.64;64.68;99973.70;131152;1263;107904;-77
2023/08/09 07:59:19;;;;;;;2.40;1.30;;;;;;;19.76;64.60;99973.55;131099;1251;106557;-77
2023/08/09 08:02:25;;;;;;;1.70;1.30;;;;;;;19.88;63.65;99970.52;131039;1253;108529;-77
2023/08/09 08:05:30;;;;;;;2.20;1.30;;;;;;;19.99;63.48;99978.45;131021;1254;108529;-77
2023/08/09 08:08:36;;;;;;;2.40;1.30;;;;;;;20.20;63.85;99986.02;131051;1261;107602;-79
2023/08/09 08:11:41;;;;;;;2.20;1.30;;;;;;;20.47;63.10;99985.59;131062;1257;106728;-78
2023/08/09 08:14:47;;;;;;;1.40;1.20;;;;;;;20.58;61.79;99986.55;131112;1257;107672;-78
2023/08/09 08:17:54;;;;;;;3.40;1.60;;;;;;;20.60;61.24;99984.79;131186;1252;108752;-77
2023/08/09 08:21:02;;;;;;;1.50;1.20;;;;;;;20.66;61.06;99981.19;131378;1254;108557;-76
2023/08/09 08:24:08;;;;;;;1.90;1.30;;;;;;;20.72;61.21;99976.08;131358;1253;108795;-77
2023/08/09 08:27:14;;;;;;;2.30;1.40;;;;;;;20.84;60.27;99981.16;131295;1253;107714;-78
2023/08/09 08:30:21;;;;;;;1.80;1.00;;;;;;;20.86;60.56;99984.68;131111;1256;107872;-78
2023/08/09 08:33:27;;;;;;;2.20;1.10;;;;;;;20.99;60.46;99980.88;131155;1255;107914;-77
2023/08/09 08:36:33;;;;;;;2.20;1.40;;;;;;;21.25;60.02;99979.81;131106;1263;107099;-77
2023/08/09 08:39:38;;;;;;;1.70;1.00;;;;;;;21.47;59.26;99978.84;131127;1256;106567;-77
2023/08/09 08:42:44;;;;;;;1.90;1.00;;;;;;;21.61;59.36;99981.86;131155;1263;108749;-78
2023/08/09 08:45:50;;;;;;;1.50;1.10;;;;;;;21.87;59.17;99979.40;131099;1257;107768;-77
2023/08/09 08:49:05;;;;;;;1.60;1.20;;;;;;;22.12;58.46;99981.52;131410;1254;108635;-79
2023/08/09 08:52:15;;;;;;;3.20;1.60;;;;;;;22.29;57.68;99985.15;130998;1257;109774;-77
2023/08/09 08:55:21;;;;;;;2.60;1.80;;;;;;;22.30;57.10;99983.45;131117;1253;108632;-78
2023/08/09 08:58:27;;;;;;;3.30;1.40;;;;;;;22.35;57.58;99982.20;131065;1253;108538;-77
2023/08/09 09:01:33;;;;;;;3.70;1.70;;;;;;;22.58;57.74;99981.38;131019;1260;106875;-77
2023/08/09 09:04:39;;;;;;;2.20;1.40;;;;;;;22.81;56.94;99981.40;131068;1253;108705;-77
2023/08/09 09:07:46;;;;;;;1.70;1.40;;;;;;;22.90;56.48;99979.45;131086;1254;107721;-78
2023/08/09 09:10:54;;;;;;;1.80;1.10;;;;;;;22.90;56.50;99984.98;131137;1251;107472;-77
2023/08/09 09:14:01;;;;;;;3.60;1.50;;;;;;;22.79;55.23;99987.39;131083;1257;108326;-77
2023/08/09 09:17:09;;;;;;;1.40;1.30;;;;;;;22.65;55.46;99985.90;131044;1264;106928;-78
2023/08/09 09:20:21;;;;;;;1.70;1.30;;;;;;;22.49;55.71;99989.63;131040;1257;108458;-78
2023/08/09 09:23:31;;;;;;;1.90;1.50;;;;;;;22.47;55.94;99983.74;131144;1257;107226;-78
2023/08/09 09:26:38;;;;;;;1.70;1.20;;;;;;;22.62;55.63;99975.50;131026;1263;106844;-78
2023/08/09 09:29:43;;;;;;;1.30;1.10;;;;;;;22.72;54.11;99976.80;131084;1254;107811;-78
2023/08/09 09:32:59;;;;;;;1.40;1.00;;;;;;;22.65;54.22;99976.75;131004;1253;108356;-77
2023/08/09 09:36:10;;;;;;;1.90;1.20;;;;;;;22.52;54.31;99976.42;131143;1262;107044;-77
2023/08/09 09:39:15;;;;;;;1.80;1.40;;;;;;;22.50;53.88;99978.66;131137;1257;108641;-78
2023/08/09 09:42:32;;;;;;;3.20;1.20;;;;;;;22.50;53.19;99969.02;131078;1255;108461;-77
2023/08/09 09:45:37;;;;;;;2.20;1.40;;;;;;;22.54;53.91;99965.58;131035;1255;106807;-77
2023/08/09 09:48:49;;;;;;;1.30;1.00;;;;;;;22.62;53.61;99962.27;131060;1257;107441;-77
2023/08/09 09:51:56;;;;;;;1.40;1.10;;;;;;;22.66;52.50;99954.95;131105;1256;106804;-78
2023/08/09 09:55:03;;;;;;;1.30;1.10;;;;;;;22.75;52.72;99951.38;131078;1254;108508;-78
2023/08/09 09:58:08;;;;;;;1.80;1.30;;;;;;;22.79;50.65;99951.95;130988;1251;107495;-78
2023/08/09 10:01:18;;;;;;;1.90;1.10;;;;;;;22.74;51.06;99951.04;130982;1257;108818;-77
2023/08/09 10:04:24;;;;;;;1.90;1.10;;;;;;;22.76;49.83;99944.13;131124;1252;106963;-78
2023/08/09 10:07:32;;;;;;;2.00;1.20;;;;;;;22.97;51.30;99939.22;131146;1257;108290;-77
2023/08/09 10:10:39;;;;;;;2.90;1.30;;;;;;;23.07;51.08;99935.80;131093;1252;107961;-78
2023/08/09 10:13:46;;;;;;;2.20;1.20;;;;;;;23.12;51.26;99939.86;131039;1253;107058;-78
2023/08/09 10:16:52;;;;;;;1.50;1.20;;;;;;;23.14;51.57;99935.42;131117;1265;107096;-78
2023/08/09 10:20:00;;;;;;;1.40;1.30;;;;;;;23.14;51.47;99938.91;131038;1251;108511;-77
2023/08/09 10:23:06;;;;;;;1.70;1.20;;;;;;;23.15;51.06;99939.73;131222;1254;107642;-78
2023/08/09 10:26:16;;;;;;;2.10;1.20;;;;;;;23.19;51.19;99942.37;131051;1263;108012;-77
2023/08/09 10:29:23;;;;;;;1.20;1.10;;;;;;;23.20;50.49;99937.27;130968;1263;106708;-77
2023/08/09 10:32:50;;;;;;;2.60;1.40;;;;;;;23.22;50.13;99934.79;131045;1251;106729;-77
2023/08/09 10:35:56;;;;;;;1.40;1.10;;;;;;;23.37;50.23;99929.41;131221;1254;108399;-78
2023/08/09 10:39:11;;;;;;;3.00;1.30;;;;;;;23.57;50.20;99930.45;131358;1251;107805;-77
2023/08/09 10:42:16;;;;;;;2.60;1.30;;;;;;;23.70;50.13;99933.62;131059;1256;107344;-77
2023/08/09 10:45:22;;;;;;;1.60;1.40;;;;;;;23.79;49.13;99936.61;131111;1264;107699;-78
2023/08/09 10:48:29;;;;;;;1.60;1.10;;;;;;;23.94;49.60;99935.26;131073;1255;106588;-77
2023/08/09 10:51:35;;;;;;;3.30;1.40;;;;;;;24.15;48.73;99936.17;131221;1254;107125;-77
2023/08/09 10:54:40;;;;;;;2.60;1.30;;;;;;;24.36;48.95;99931.79;131156;1251;107386;-78
2023/08/09 10:57:48;;;;;;;2.30;1.30;;;;;;;24.53;48.67;99926.56;130989;1251;108478;-77
2023/08/09 11:00:55;;;;;;;2.60;1.60;;;;;;;24.65;48.97;99922.85;131230;1253;107659;-79
2023/08/09 11:04:00;;;;;;;2.30;1.20;;;;;;;24.76;48.54;99925.43;131096;1263;107430;-77
2023/08/09 11:07:07;;;;;;;2.40;1.50;;;;;;;24.80;48.45;99922.47;131072;1253;107025;-78
2023/08/09 11:10:13;;;;;;;2.40;1.50;;;;;;;24.74;47.90;99925.29;131100;1255;106819;-78
2023/08/09 11:13:20;;;;;;;1.60;1.20;;;;;;;24.53;48.02;99928.63;131029;1254;108444;-77
2023/08/09 11:16:27;;;;;;;1.90;1.20;;;;;;;24.29;47.85;99932.02;131181;1251;108573;-79
2023/08/09 11:19:32;;;;;;;1.80;1.40;;;;;;;24.07;48.11;99932.57;131080;1263;109022;-79
2023/08/09 11:22:38;;;;;;;1.80;1.50;;;;;;;23.67;47.24;99932.89;131100;1262;107793;-78
2023/08/09 11:25:44;;;;;;;1.70;1.40;;;;;;;23.22;48.12;99942.75;131114;1251;107579;-80
2023/08/09 11:28:50;;;;;;;1.80;1.40;;;;;;;22.89;48.46;99945.58;131077;1251;107632;-79
2023/08/09 11:31:58;;;;;;;2.70;1.50;;;;;;;22.64;48.98;99960.20;131175;1251;107787;-78
2023/08/09 11:35:05;;;;;;;2.60;1.40;;;;;;;22.43;49.91;99970.72;131064;1251;107581;-79
2023/08/09 11:38:13;;;;;;;4.50;1.90;;;;;;;22.03;50.95;99963.55;131080;1254;108325;-80
2023/08/09 11:41:21;;;;;;;4.00;2.10;;;;;;;21.62;51.84;99975.74;131447;1255;106561;-80
2023/08/09 11:44:31;;;;;;;3.10;2.10;;;;;;;21.28;52.17;99990.09;131037;1254;108925;-76
2023/08/09 11:47:36;;;;;;;2.00;1.80;;;;;;;20.99;52.71;99998.98;131066;1254;108620;-79
2023/08/09 11:50:42;;;;;;;2.60;1.90;;;;;;;20.63;53.51;100007.77;130975;1254;107464;-76
2023/08/09 11:53:50;;;;;;;2.60;2.10;;;;;;;20.22;55.37;100016.13;131387;1251;107844;-78
2023/08/09 11:56:56;;;;;;;3.40;2.30;;;;;;;19.83;57.96;100017.73;131386;1254;106973;-80
2023/08/09 12:00:02;;;;;;;3.50;2.40;;;;;;;19.36;59.00;100027.36;131212;1253;108688;-78
2023/08/09 12:03:12;;;;;;;3.90;2.60;;;;;;;19.01;60.50;100036.52;131153;1254;108595;-79
2023/08/09 12:06:20;;;;;;;6.00;2.80;;;;;;;18.71;62.30;100042.08;131162;1251;107757;-78
2023/08/09 12:09:35;;;;;;;2.80;2.50;;;;;;;18.47;62.78;100044.83;131414;1251;108627;-79
2023/08/09 12:12:42;;;;;;;4.80;2.60;;;;;;;18.27;63.06;100042.26;131056;1249;107564;-80
2023/08/09 12:15:48;;;;;;;3.40;2.80;;;;;;;18.20;64.19;100046.97;131152;1254;108249;-81
2023/08/09 12:18:54;;;;;;;5.40;3.10;;;;;;;18.15;63.53;100047.55;131139;1254;108399;-77
2023/08/09 12:22:03;;;;;;;3.10;2.60;;;;;;;18.07;64.75;100049.96;131089;1250;108077;-78
2023/08/09 12:25:10;;;;;;;2.70;2.20;;;;;;;18.02;64.56;100057.89;131227;1254;108285;-78
2023/08/09 12:28:15;;;;;;;4.00;2.90;;;;;;;18.03;64.58;100060.92;131028;1254;106639;-77
2023/08/09 12:31:21;;;;;;;4.70;3.30;;;;;;;18.03;64.38;100061.00;131045;1254;106802;-77
2023/08/09 12:34:27;;;;;;;4.30;3.00;;;;;;;17.95;66.19;100059.45;131077;1254;107790;-76
2023/08/09 12:37:34;;;;;;;6.20;3.20;;;;;;;17.84;66.86;100059.34;131064;1254;108284;-78
2023/08/09 12:40:39;;;;;;;4.60;3.40;;;;;;;17.73;69.11;100061.71;131109;1251;108178;-78
2023/08/09 12:43:45;;;;;;;3.90;3.50;;;;;;;17.61;69.59;100063.61;131083;1254;106585;-77
2023/08/09 12:46:51;;;;;;;5.20;3.80;;;;;;;17.54;68.17;100063.02;131076;1254;108624;-78
2023/08/09 12:49:56;;;;;;;4.60;3.70;;;;;;;17.46;69.73;100065.09;130977;1250;215233;-77
2023/08/09 12:53:02;;;;;;;6.60;3.80;;;;;;;17.40;70.26;100068.81;131106;1254;108218;-78
2023/08/09 12:56:08;;;;;;;4.20;3.40;;;;;;;17.37;71.65;100067.35;131175;1254;108369;-78
2023/08/09 12:59:15;;;;;;;4.60;3.30;;;;;;;17.36;69.75;100070.59;131129;1254;108643;-78
2023/08/09 13:02:20;;;;;;;4.70;3.50;;;;;;;17.44;69.40;100075.09;131161;1255;108270;-78
2023/08/09 13:05:26;;;;;;;4.40;3.60;;;;;;;17.43;71.26;100078.83;131121;1253;108473;-78
2023/08/09 13:08:32;;;;;;;5.20;3.40;;;;;;;17.41;71.06;100079.81;131050;1257;107268;-79
2023/08/09 13:11:39;;;;;;;5.40;3.30;;;;;;;17.39;72.17;100088.52;131133;1256;106629;-80
2023/08/09 13:14:44;;;;;;;4.50;3.20;;;;;;;17.36;71.99;100088.42;131213;1254;107748;-77
2023/08/09 13:17:50;;;;;;;3.80;3.30;;;;;;;17.37;73.29;100080.75;131081;1257;107009;-78
2023/08/09 13:21:13;;;;;;;5.60;3.80;;;;;;;17.35;72.59;100083.27;131054;1251;108939;-78
2023/08/09 13:24:19;;;;;;;4.60;3.30;;;;;;;17.46;73.24;100081.70;131179;1251;106675;-78
2023/08/09 13:27:25;;;;;;;4.80;3.00;;;;;;;17.55;73.18;100081.36;131111;1254;106868;-79
2023/08/09 13:30:31;;;;;;;4.80;3.50;;;;;;;17.65;73.75;100081.30;131212;1254;107752;-79
2023/08/09 13:33:38;;;;;;;3.90;3.30;;;;;;;17.62;73.88;100076.27;131131;1256;108223;-77
2023/08/09 13:36:44;;;;;;;4.60;3.30;;;;;;;17.59;73.59;100077.63;131130;1251;107023;-79
2023/08/09 13:39:49;;;;;;;3.90;2.90;;;;;;;17.44;73.41;100080.14;131140;1254;106569;-77
2023/08/09 13:42:55;;;;;;;3.60;2.90;;;;;;;17.41;73.28;100077.79;131044;1255;107333;-77
2023/08/09 13:46:01;;;;;;;3.60;2.80;;;;;;;17.32;73.76;100082.89;131005;1257;107715;-77
2023/08/09 13:49:06;;;;;;;3.10;2.30;;;;;;;17.26;74.50;100083.08;130969;1253;107702;-78
2023/08/09 13:52:12;;;;;;;3.10;2.30;;;;;;;17.12;74.62;100077.70;131035;1266;107393;-78
2023/08/09 13:55:18;;;;;;;2.80;2.10;;;;;;;17.05;74.11;100081.44;131242;1254;108612;-77
2023/08/09 13:58:24;;;;;;;2.20;2.00;;;;;;;16.94;73.97;100086.08;131042;1253;108489;-78
2023/08/09 14:01:30;;;;;;;2.60;1.80;;;;;;;16.79;73.09;100091.90;131169;1251;108390;-78
2023/08/09 14:04:35;;;;;;;2.10;1.80;;;;;;;16.61;73.07;100091.02;131235;1253;105210;-78
2023/08/09 14:07:41;;;;;;;2.80;1.90;;;;;;;16.54;73.02;100093.98;131406;1253;107548;-79
2023/08/09 14:10:46;;;;;;;2.70;1.90;;;;;;;16.50;72.74;100099.84;131437;1254;107652;-79
2023/08/09 14:13:52;;;;;;;3.40;2.10;;;;;;;16.52;72.61;100088.26;131205;1251;107565;-78
2023/08/09 14:16:57;;;;;;;2.60;1.90;;;;;;;16.61;73.04;100089.36;131057;1250;107675;-78